Time;durP1;ratioP1;P1;durP2;ratioP2;P2;SDS_P1;SDS_P2;PMS_P1;PMS_P2;Temp;Humidity;BMP_temperature;BMP_pressure;BME280_temperature;BME280_humidity;BME280_pressure;Samples;Min_cycle;Max_cycle;Signal;HPM_P1;HPM_P2
2022/08/28 00:02:03;;;;;;;21.40;15.80;;;18.50;99.90;;;;;;6153236;23;20514;-72
2022/08/28 00:04:31;;;;;;;19.73;15.43;;;18.50;99.90;;;;;;6175967;23;20021;-72
2022/08/28 00:06:58;;;;;;;20.17;16.40;;;18.40;99.90;;;;;;6152654;23;20367;-72
2022/08/28 00:09:29;;;;;;;24.83;16.83;;;18.40;99.90;;;;;;6153030;23;20060;-72
2022/08/28 00:11:57;;;;;;;20.65;16.05;;;18.40;99.90;;;;;;6153501;23;20032;-72
2022/08/28 00:14:25;;;;;;;20.67;16.13;;;18.40;99.90;;;;;;6152503;23;20025;-71
2022/08/28 00:16:53;;;;;;;19.38;15.63;;;18.40;99.90;;;;;;6152539;23;20525;-72
2022/08/28 00:19:22;;;;;;;24.90;16.23;;;18.40;99.90;;;;;;6151420;23;20040;-72
2022/08/28 00:21:51;;;;;;;21.95;16.60;;;18.30;99.90;;;;;;6152362;23;20021;-72
2022/08/28 00:24:18;;;;;;;19.38;15.63;;;18.30;99.90;;;;;;6175994;23;20025;-72
2022/08/28 00:29:32;;;;;;;20.30;16.73;;;18.40;99.90;;;;;;6151466;23;20021;-72
2022/08/28 00:32:00;;;;;;;19.38;16.52;;;18.40;99.90;;;;;;6152082;23;20467;-71
2022/08/28 00:34:27;;;;;;;24.60;16.33;;;18.30;99.90;;;;;;6152728;23;20028;-71
2022/08/28 00:36:54;;;;;;;25.33;17.17;;;18.30;99.90;;;;;;6152852;23;20025;-71
2022/08/28 00:39:22;;;;;;;23.67;17.08;;;18.30;99.90;;;;;;6152648;23;20025;-72
2022/08/28 00:41:51;;;;;;;25.05;17.15;;;18.30;99.90;;;;;;6150941;23;20033;-72
2022/08/28 00:44:22;;;;;;;23.20;16.58;;;18.30;99.90;;;;;;6151024;23;20021;-72
2022/08/28 00:46:53;;;;;;;22.67;16.92;;;18.30;99.90;;;;;;6151716;23;20032;-71
2022/08/28 00:49:32;;;;;;;23.83;17.35;;;18.20;99.90;;;;;;6153070;23;20076;-73
2022/08/28 00:52:14;;;;;;;26.52;16.55;;;18.20;99.90;;;;;;6152101;23;20075;-73
2022/08/28 00:54:46;;;;;;;23.40;17.38;;;18.20;99.90;;;;;;6153219;23;20037;-73
2022/08/28 00:57:20;;;;;;;21.50;16.53;;;18.10;99.90;;;;;;6152594;23;20096;-73
2022/08/28 00:59:47;;;;;;;24.70;17.35;;;18.10;99.90;;;;;;6150859;23;20049;-73
2022/08/28 01:02:15;;;;;;;26.45;16.85;;;18.10;99.90;;;;;;6152728;23;20470;-73
2022/08/28 01:04:42;;;;;;;20.58;16.30;;;18.10;99.90;;;;;;6153069;23;20350;-73
2022/08/28 01:07:14;;;;;;;22.13;16.83;;;18.10;99.90;;;;;;6126435;23;20057;-73
2022/08/28 01:09:49;;;;;;;26.20;16.63;;;18.10;99.90;;;;;;6151474;23;20029;-73
2022/08/28 01:12:22;;;;;;;22.95;16.13;;;18.10;99.90;;;;;;6126353;23;20021;-73
2022/08/28 01:14:53;;;;;;;22.08;16.73;;;18.10;99.90;;;;;;6151377;23;20049;-73
2022/08/28 01:17:23;;;;;;;19.25;16.30;;;18.00;99.90;;;;;;6151961;23;20049;-73
2022/08/28 01:19:57;;;;;;;29.23;17.52;;;18.00;99.90;;;;;;6152993;23;20072;-73
2022/08/28 01:22:36;;;;;;;23.75;17.23;;;18.00;99.90;;;;;;6153320;23;20498;-73
2022/08/28 01:25:09;;;;;;;25.88;16.85;;;18.00;99.90;;;;;;6153247;23;20021;-73
2022/08/28 01:27:40;;;;;;;26.20;17.00;;;17.90;99.90;;;;;;6154036;23;20308;-72
2022/08/28 01:30:10;;;;;;;23.88;16.05;;;17.90;99.90;;;;;;6153265;23;20025;-72
2022/08/28 01:32:41;;;;;;;30.42;17.02;;;17.90;99.90;;;;;;6154306;23;20029;-73
2022/08/28 01:35:14;;;;;;;23.27;17.20;;;17.90;99.90;;;;;;6152621;23;20049;-73
2022/08/28 01:37:42;;;;;;;22.85;17.50;;;17.90;99.90;;;;;;6154440;23;20057;-73
2022/08/28 01:40:17;;;;;;;26.13;17.10;;;17.80;99.90;;;;;;6152630;23;20029;-73
2022/08/28 01:42:45;;;;;;;24.30;17.83;;;17.80;99.90;;;;;;6154439;23;20060;-73
2022/08/28 01:45:16;;;;;;;26.52;17.73;;;17.80;99.90;;;;;;6152671;23;20022;-73
2022/08/28 01:47:45;;;;;;;26.35;16.85;;;17.80;99.90;;;;;;6152404;23;20022;-73
2022/08/28 01:50:16;;;;;;;21.83;16.80;;;17.80;99.90;;;;;;6154222;23;20025;-74
2022/08/28 01:52:43;;;;;;;26.33;17.85;;;17.70;99.90;;;;;;6153836;23;20017;-74
2022/08/28 01:55:13;;;;;;;23.77;17.48;;;17.70;99.90;;;;;;6152355;23;20327;-74
2022/08/28 01:57:44;;;;;;;25.73;18.27;;;17.70;99.90;;;;;;6127739;23;20034;-73
2022/08/28 02:00:13;;;;;;;21.50;16.50;;;17.70;99.90;;;;;;6154277;23;20442;-73
2022/08/28 02:02:41;;;;;;;19.77;17.17;;;17.60;99.90;;;;;;6154115;23;20027;-73
2022/08/28 02:05:09;;;;;;;25.05;16.85;;;17.60;99.90;;;;;;6153983;23;20028;-73
2022/08/28 02:07:37;;;;;;;20.65;16.15;;;17.60;99.90;;;;;;6153936;23;20022;-73
2022/08/28 02:10:06;;;;;;;22.10;15.98;;;17.60;99.90;;;;;;6152800;23;20056;-74
2022/08/28 02:12:35;;;;;;;26.77;17.40;;;17.60;99.90;;;;;;6154444;23;20124;-73
2022/08/28 02:15:02;;;;;;;22.52;17.55;;;17.60;99.90;;;;;;6153816;23;20028;-73
2022/08/28 02:17:30;;;;;;;22.27;17.13;;;17.50;99.90;;;;;;6154199;23;20148;-74
2022/08/28 02:19:58;;;;;;;24.83;17.83;;;17.50;99.90;;;;;;6153887;23;20076;-73
2022/08/28 02:22:25;;;;;;;20.70;17.40;;;17.60;99.90;;;;;;6151674;23;20032;-74
2022/08/28 02:24:52;;;;;;;23.45;16.75;;;17.50;99.90;;;;;;6154153;23;20027;-73
2022/08/28 02:27:20;;;;;;;24.42;17.08;;;17.50;99.90;;;;;;6153346;23;20057;-73
2022/08/28 02:29:48;;;;;;;22.98;17.73;;;17.50;99.90;;;;;;6153654;23;20025;-74
2022/08/28 02:32:17;;;;;;;23.90;18.00;;;17.50;99.90;;;;;;6153390;23;20458;-73
2022/08/28 02:34:44;;;;;;;32.63;19.10;;;17.50;99.90;;;;;;6153804;23;20025;-74
2022/08/28 02:37:12;;;;;;;24.52;17.70;;;17.50;99.90;;;;;;6152369;23;20112;-74
2022/08/28 02:39:40;;;;;;;25.88;18.70;;;17.50;99.90;;;;;;6152241;23;20354;-73
2022/08/28 02:42:08;;;;;;;28.10;19.25;;;17.40;99.90;;;;;;6176671;23;20025;-73
2022/08/28 02:44:35;;;;;;;27.70;18.75;;;17.40;99.90;;;;;;6153527;23;20029;-73
2022/08/28 02:47:05;;;;;;;28.67;18.75;;;17.40;99.90;;;;;;6151961;23;20068;-74
2022/08/28 02:49:32;;;;;;;28.63;19.10;;;17.40;99.90;;;;;;6153521;23;20017;-74
2022/08/28 02:51:59;;;;;;;27.70;18.42;;;17.40;99.90;;;;;;6154235;23;20319;-74
2022/08/28 02:54:27;;;;;;;24.80;18.38;;;17.40;99.90;;;;;;6153578;23;20021;-73
2022/08/28 02:56:54;;;;;;;25.02;18.35;;;17.40;99.90;;;;;;6152291;23;20029;-74
2022/08/28 02:59:22;;;;;;;29.92;19.48;;;17.40;99.90;;;;;;6153800;23;20017;-74
2022/08/28 03:01:49;;;;;;;31.42;19.08;;;17.40;99.90;;;;;;6152474;23;20026;-73
2022/08/28 03:04:18;;;;;;;34.05;18.90;;;17.40;99.90;;;;;;6153609;23;20025;-74
2022/08/28 03:06:46;;;;;;;30.35;20.17;;;17.40;99.90;;;;;;6152177;23;20029;-74
2022/08/28 03:09:13;;;;;;;26.83;19.13;;;17.40;99.90;;;;;;6152240;23;20024;-74
2022/08/28 03:11:40;;;;;;;25.67;18.48;;;17.40;99.90;;;;;;6153235;23;20048;-74
2022/08/28 03:14:08;;;;;;;27.40;19.88;;;17.40;99.90;;;;;;6153346;23;20068;-74
2022/08/28 03:16:35;;;;;;;24.95;18.92;;;17.40;99.90;;;;;;6153849;23;20029;-74
2022/08/28 03:19:02;;;;;;;29.08;18.65;;;17.40;99.90;;;;;;6153040;23;20025;-74
2022/08/28 03:21:31;;;;;;;29.60;19.00;;;17.40;99.90;;;;;;6154241;23;20025;-74
2022/08/28 03:23:58;;;;;;;27.35;20.10;;;17.50;99.90;;;;;;6153370;23;20032;-75
2022/08/28 03:26:25;;;;;;;23.65;19.02;;;17.60;99.90;;;;;;6152175;23;20112;-74
2022/08/28 03:28:56;;;;;;;32.35;22.33;;;17.70;99.90;;;;;;6151612;23;20032;-75
2022/08/28 03:31:32;;;;;;;26.15;18.15;;;17.70;99.90;;;;;;6151635;23;20033;-74
2022/08/28 03:33:59;;;;;;;22.40;18.38;;;17.80;99.90;;;;;;6151592;23;20280;-74
2022/08/28 03:36:29;;;;;;;27.33;20.05;;;17.80;99.90;;;;;;6152874;23;20045;-74
2022/08/28 03:39:02;;;;;;;29.65;19.75;;;17.80;99.90;;;;;;6151991;23;20047;-74
2022/08/28 03:41:31;;;;;;;30.60;19.52;;;17.80;99.90;;;;;;6153392;23;20102;-74
2022/08/28 03:44:01;;;;;;;29.85;18.85;;;17.90;99.90;;;;;;6153242;23;20100;-74
2022/08/28 03:46:32;;;;;;;31.70;21.75;;;17.90;99.90;;;;;;6127648;23;20108;-74
2022/08/28 03:49:01;;;;;;;25.27;18.75;;;18.00;99.90;;;;;;6151456;23;20025;-74
2022/08/28 03:51:34;;;;;;;30.60;19.92;;;18.00;99.90;;;;;;6151632;23;20022;-74
2022/08/28 03:54:04;;;;;;;30.10;19.45;;;18.10;99.90;;;;;;6153310;23;20025;-74
2022/08/28 03:56:32;;;;;;;32.90;21.40;;;18.10;99.90;;;;;;6153565;23;20500;-74
2022/08/28 03:59:03;;;;;;;29.92;21.08;;;18.20;99.90;;;;;;6151589;23;20029;-74
2022/08/28 04:01:32;;;;;;;33.10;21.17;;;18.20;99.90;;;;;;6153778;23;20026;-74
2022/08/28 04:03:59;;;;;;;26.95;20.77;;;18.20;99.90;;;;;;6150983;23;20033;-74
2022/08/28 04:06:27;;;;;;;26.98;20.08;;;18.30;99.90;;;;;;6153619;23;20017;-74
2022/08/28 04:08:55;;;;;;;31.73;19.98;;;18.30;99.90;;;;;;6151679;23;20025;-74
2022/08/28 04:11:24;;;;;;;30.33;19.75;;;18.40;99.90;;;;;;6153298;23;20017;-74
2022/08/28 04:13:51;;;;;;;28.90;20.25;;;18.40;99.90;;;;;;6153328;23;20049;-74
2022/08/28 04:16:18;;;;;;;31.17;20.70;;;18.40;99.90;;;;;;6152959;23;20092;-73
2022/08/28 04:18:48;;;;;;;32.65;20.55;;;18.50;99.90;;;;;;6152700;23;20021;-73
2022/08/28 04:21:19;;;;;;;27.55;20.27;;;18.50;99.90;;;;;;6153291;23;20032;-74
2022/08/28 04:23:47;;;;;;;29.23;18.73;;;18.60;99.90;;;;;;6152927;23;20072;-73
2022/08/28 04:26:20;;;;;;;25.98;19.83;;;18.70;99.90;;;;;;6153533;23;20026;-74
2022/08/28 04:28:49;;;;;;;28.67;18.77;;;18.70;99.90;;;;;;6152656;23;20064;-74
2022/08/28 04:31:17;;;;;;;33.28;19.95;;;18.80;99.90;;;;;;6153326;23;20097;-74
2022/08/28 04:33:45;;;;;;;27.08;19.33;;;18.80;99.90;;;;;;6151843;23;20499;-74
2022/08/28 04:36:15;;;;;;;28.63;20.73;;;18.80;99.90;;;;;;6153133;23;20029;-74
2022/08/28 04:38:43;;;;;;;27.77;19.63;;;18.90;99.90;;;;;;6151318;23;20117;-74
2022/08/28 04:41:15;;;;;;;32.28;19.60;;;18.90;99.90;;;;;;6152505;23;20428;-74
2022/08/28 04:43:44;;;;;;;25.35;19.33;;;18.90;99.90;;;;;;6152418;23;20080;-74
2022/08/28 04:46:14;;;;;;;28.30;19.70;;;19.00;99.90;;;;;;6152596;23;20022;-74
2022/08/28 04:48:43;;;;;;;23.65;19.83;;;19.10;99.90;;;;;;6153325;23;20136;-72
2022/08/28 04:51:13;;;;;;;30.25;20.27;;;19.10;99.90;;;;;;6151517;23;20049;-72
2022/08/28 04:53:45;;;;;;;24.30;18.60;;;19.20;99.90;;;;;;6153165;23;20481;-73
2022/08/28 04:56:15;;;;;;;29.10;21.23;;;19.20;99.90;;;;;;6155686;23;20028;-72
2022/08/28 04:58:44;;;;;;;37.70;19.27;;;19.30;99.90;;;;;;6152578;23;20100;-71
2022/08/28 05:01:18;;;;;;;27.40;20.40;;;19.40;99.90;;;;;;6153071;23;20072;-71
2022/08/28 05:03:46;;;;;;;32.17;19.80;;;19.40;99.90;;;;;;6154689;23;20045;-71
2022/08/28 05:06:15;;;;;;;33.05;21.85;;;19.50;99.90;;;;;;6154972;23;20025;-73
2022/08/28 05:08:43;;;;;;;27.73;21.85;;;19.60;99.90;;;;;;6154439;23;20025;-72
2022/08/28 05:11:14;;;;;;;34.80;22.15;;;19.70;99.90;;;;;;6128432;23;20280;-73
2022/08/28 05:13:43;;;;;;;31.63;21.08;;;19.80;99.90;;;;;;6154323;23;20052;-74
2022/08/28 05:16:10;;;;;;;32.95;20.80;;;19.90;99.90;;;;;;6153461;23;20021;-74
2022/08/28 05:18:39;;;;;;;31.67;21.52;;;20.00;99.90;;;;;;6154479;23;20029;-75
2022/08/28 05:21:12;;;;;;;27.38;20.45;;;20.10;99.90;;;;;;6154996;23;20021;-72
2022/08/28 05:23:40;;;;;;;26.40;20.98;;;20.20;99.90;;;;;;6154235;23;20025;-72
2022/08/28 05:26:12;;;;;;;23.85;19.85;;;20.30;99.90;;;;;;6154478;23;20028;-72
2022/08/28 05:28:39;;;;;;;31.65;20.08;;;20.40;99.90;;;;;;6155014;23;20025;-77
2022/08/28 05:31:12;;;;;;;29.70;20.20;;;20.50;99.90;;;;;;6154200;23;20049;-74
2022/08/28 05:33:40;;;;;;;29.83;20.55;;;20.70;99.90;;;;;;6155208;23;20021;-74
2022/08/28 05:36:10;;;;;;;28.33;20.85;;;21.00;99.90;;;;;;6155279;23;20028;-74
2022/08/28 05:38:38;;;;;;;29.10;19.95;;;21.60;99.90;;;;;;6154258;23;20029;-73
2022/08/28 05:41:07;;;;;;;26.33;19.27;;;22.30;99.90;;;;;;6153539;23;20035;-76
2022/08/28 05:43:35;;;;;;;32.38;18.45;;;22.90;99.90;;;;;;6153257;23;20021;-77
2022/08/28 05:46:06;;;;;;;27.52;19.13;;;23.60;99.90;;;;;;6154320;23;20121;-76
2022/08/28 05:48:34;;;;;;;23.92;18.02;;;24.20;99.90;;;;;;6156365;23;20024;-73
2022/08/28 05:51:07;;;;;;;29.23;18.63;;;24.80;99.90;;;;;;6154969;23;20025;-73
2022/08/28 05:53:40;;;;;;;24.73;17.60;;;25.40;99.90;;;;;;6153113;23;20143;-73
2022/08/28 05:56:08;;;;;;;23.13;17.40;;;25.90;99.90;;;;;;6154928;23;20052;-73
2022/08/28 05:58:36;;;;;;;25.50;19.83;;;26.30;99.90;;;;;;6153045;23;20113;-76
2022/08/28 06:01:11;;;;;;;21.38;19.02;;;26.60;99.90;;;;;;6152868;23;20079;-72
2022/08/28 06:03:42;;;;;;;23.67;18.15;;;26.90;99.90;;;;;;6153635;23;20025;-77
2022/08/28 06:06:14;;;;;;;25.77;17.92;;;27.10;99.90;;;;;;6153349;23;20396;-73
2022/08/28 06:08:42;;;;;;;25.48;18.48;;;27.30;99.90;;;;;;6154533;23;20030;-77
2022/08/28 06:11:09;;;;;;;31.15;20.80;;;27.60;99.90;;;;;;6152120;23;20450;-76
2022/08/28 06:13:37;;;;;;;27.40;20.67;;;27.90;99.90;;;;;;6152934;23;20073;-71
2022/08/28 06:16:05;;;;;;;31.08;20.67;;;28.20;99.90;;;;;;6154536;23;20060;-71
2022/08/28 06:18:33;;;;;;;31.52;21.45;;;28.50;99.90;;;;;;6153935;23;20037;-72
2022/08/28 06:21:02;;;;;;;28.05;21.92;;;28.80;99.90;;;;;;6154734;23;20022;-71
2022/08/28 06:23:31;;;;;;;26.67;20.63;;;29.10;99.90;;;;;;6152057;23;20029;-76
2022/08/28 06:26:00;;;;;;;26.08;20.35;;;29.40;99.90;;;;;;6154794;23;20068;-72
2022/08/28 06:28:28;;;;;;;30.98;21.70;;;29.70;99.90;;;;;;6153639;23;20455;-72
2022/08/28 06:30:56;;;;;;;35.30;21.42;;;29.90;99.90;;;;;;6154597;23;20458;-72
2022/08/28 06:33:24;;;;;;;28.73;22.20;;;30.20;99.90;;;;;;6154162;23;20569;-72
2022/08/28 06:35:54;;;;;;;30.10;21.23;;;30.40;99.90;;;;;;6154022;23;20471;-73
2022/08/28 06:38:25;;;;;;;42.15;21.50;;;30.60;99.90;;;;;;6153757;23;20041;-72
2022/08/28 06:40:56;;;;;;;30.77;18.40;;;30.90;99.90;;;;;;6152698;23;20029;-70
2022/08/28 06:43:27;;;;;;;34.05;22.67;;;31.10;99.90;;;;;;6154402;23;20108;-70
2022/08/28 06:45:57;;;;;;;22.03;17.27;;;31.50;99.90;;;;;;6149335;23;20041;-72
2022/08/28 06:48:28;;;;;;;20.50;18.30;;;31.50;99.90;;;;;;6153979;23;20264;-73
2022/08/28 06:50:58;;;;;;;22.23;17.02;;;31.70;99.90;;;;;;6153698;23;20025;-74
2022/08/28 06:53:30;;;;;;;22.23;17.55;;;32.00;99.90;;;;;;6151951;23;20454;-72
2022/08/28 06:56:05;;;;;;;21.13;16.95;;;32.20;99.90;;;;;;6153414;23;20057;-72
2022/08/28 06:58:35;;;;;;;22.67;18.77;;;32.30;99.90;;;;;;6152314;23;20035;-75
2022/08/28 07:01:10;;;;;;;21.48;17.63;;;32.30;99.90;;;;;;6176840;23;20108;-75
2022/08/28 07:03:41;;;;;;;28.98;18.65;;;32.10;99.90;;;;;;6153369;23;20446;-74
2022/08/28 07:06:11;;;;;;;26.52;15.88;;;32.40;99.90;;;;;;6153924;23;20026;-75
2022/08/28 07:08:39;;;;;;;19.17;15.93;;;32.70;99.90;;;;;;6151273;23;20025;-74
2022/08/28 07:11:13;;;;;;;17.25;15.32;;;33.10;99.90;;;;;;6153051;23;20457;-73
2022/08/28 07:13:40;;;;;;;18.58;15.65;;;33.30;99.90;;;;;;6153020;23;20039;-74
2022/08/28 07:16:08;;;;;;;23.77;15.05;;;33.50;99.90;;;;;;6152549;23;20041;-74
2022/08/28 07:18:37;;;;;;;15.45;13.57;;;33.90;97.80;;;;;;6151075;23;20029;-76
2022/08/28 07:21:04;;;;;;;15.65;12.95;;;34.10;95.70;;;;;;6153145;23;20025;-75
2022/08/28 07:23:33;;;;;;;22.63;12.90;;;34.20;96.50;;;;;;6153458;23;20423;-74
2022/08/28 07:26:06;;;;;;;16.85;13.60;;;34.50;94.70;;;;;;6152968;23;20021;-75
2022/08/28 07:28:36;;;;;;;14.50;12.95;;;34.70;94.10;;;;;;6151244;23;20080;-74
2022/08/28 07:31:08;;;;;;;14.93;12.40;;;35.10;91.70;;;;;;6153561;23;20426;-74
2022/08/28 07:33:39;;;;;;;15.85;11.90;;;35.40;90.10;;;;;;6153019;23;20022;-74
2022/08/28 07:36:14;;;;;;;15.73;12.82;;;35.30;90.10;;;;;;6151521;23;20060;-72
2022/08/28 07:38:42;;;;;;;14.63;11.68;;;35.40;91.20;;;;;;6152814;23;20033;-74
2022/08/28 07:41:18;;;;;;;19.02;11.70;;;35.50;85.50;;;;;;6150904;23;20026;-73
2022/08/28 07:46:30;;;;;;;15.43;11.30;;;36.20;82.30;;;;;;6118888;23;20026;-75
2022/08/28 07:48:58;;;;;;;17.00;10.40;;;36.30;82.00;;;;;;6152506;23;20025;-73
2022/08/28 07:51:26;;;;;;;17.52;11.48;;;37.00;77.40;;;;;;6152208;23;20025;-75
2022/08/28 07:53:56;;;;;;;13.75;11.73;;;37.50;76.50;;;;;;6152448;23;20028;-77
2022/08/28 07:56:23;;;;;;;11.80;10.43;;;37.50;73.40;;;;;;6153106;23;20017;-74
2022/08/28 07:58:52;;;;;;;14.27;10.48;;;37.50;75.70;;;;;;6151784;23;20028;-74
2022/08/28 08:01:19;;;;;;;13.30;10.65;;;38.00;70.40;;;;;;6152775;23;20351;-74
2022/08/28 08:03:47;;;;;;;12.30;10.35;;;38.30;69.20;;;;;;6151687;23;20027;-75
2022/08/28 08:06:15;;;;;;;15.20;10.00;;;38.50;67.60;;;;;;6151918;23;20053;-73
2022/08/28 08:08:44;;;;;;;14.90;10.75;;;38.40;66.50;;;;;;6147821;23;20025;-72
2022/08/28 08:11:16;;;;;;;12.10;10.90;;;38.50;66.40;;;;;;6150065;23;20097;-74
2022/08/28 08:13:45;;;;;;;12.35;10.57;;;38.30;67.00;;;;;;6152846;23;20072;-74
2022/08/28 08:16:16;;;;;;;12.32;10.65;;;37.70;65.90;;;;;;6152759;23;20219;-72
2022/08/28 08:18:44;;;;;;;14.15;12.25;;;37.30;67.10;;;;;;6152356;23;20061;-71
2022/08/28 08:21:16;;;;;;;19.08;11.05;;;37.30;66.10;;;;;;6149670;23;20026;-72
2022/08/28 08:23:43;;;;;;;12.23;10.50;;;37.00;66.40;;;;;;6150784;23;20356;-72
2022/08/28 08:26:13;;;;;;;18.70;12.45;;;36.60;67.70;;;;;;6149590;23;20021;-72
2022/08/28 08:28:42;;;;;;;14.65;12.38;;;36.10;68.60;;;;;;6150522;23;20048;-72
2022/08/28 08:31:17;;;;;;;14.93;11.77;;;36.60;69.20;;;;;;6151229;23;20052;-72
2022/08/28 08:33:48;;;;;;;18.95;12.00;;;37.30;67.90;;;;;;6151880;23;20032;-73
2022/08/28 08:36:19;;;;;;;12.18;10.95;;;37.10;67.10;;;;;;6151996;23;20451;-73
2022/08/28 08:38:47;;;;;;;22.23;11.83;;;36.60;66.00;;;;;;6151250;23;20025;-73
2022/08/28 08:41:22;;;;;;;11.60;10.68;;;36.50;66.30;;;;;;6150900;23;20481;-72
2022/08/28 08:43:56;;;;;;;15.75;11.50;;;36.40;66.00;;;;;;6151162;23;20028;-72
2022/08/28 08:46:33;;;;;;;14.15;10.48;;;36.30;66.50;;;;;;6152996;23;20395;-74
2022/08/28 08:49:05;;;;;;;17.42;11.02;;;36.90;66.30;;;;;;6152430;23;20495;-74
2022/08/28 08:51:42;;;;;;;13.02;10.43;;;37.80;63.50;;;;;;6152275;23;20390;-72
2022/08/28 08:54:15;;;;;;;11.18;9.98;;;38.40;60.00;;;;;;6151953;23;20072;-74
2022/08/28 08:56:43;;;;;;;10.60;9.38;;;38.50;59.80;;;;;;6152884;23;20073;-73
2022/08/28 08:59:16;;;;;;;16.27;9.50;;;38.20;57.90;;;;;;6152051;23;20029;-74
2022/08/28 09:01:54;;;;;;;10.50;9.38;;;37.30;59.00;;;;;;6151214;23;20029;-74
2022/08/28 09:04:38;;;;;;;11.93;8.73;;;37.00;59.40;;;;;;6152852;23;20028;-73
2022/08/28 09:07:18;;;;;;;13.70;10.18;;;37.60;58.70;;;;;;6151916;23;20363;-74
2022/08/28 09:09:49;;;;;;;13.00;10.35;;;38.40;57.70;;;;;;6152939;23;20100;-75
2022/08/28 09:12:22;;;;;;;13.95;9.95;;;39.00;56.90;;;;;;6151256;23;20049;-73
2022/08/28 09:15:03;;;;;;;12.05;10.07;;;38.90;56.60;;;;;;6152815;23;20027;-74
2022/08/28 09:17:37;;;;;;;15.93;10.45;;;39.20;57.50;;;;;;6152292;23;20363;-74
2022/08/28 09:20:08;;;;;;;15.80;10.18;;;39.90;57.70;;;;;;6126125;23;20030;-73
2022/08/28 09:22:36;;;;;;;;;;;40.40;54.00;;;;;;6151238;23;20032;-73
2022/08/28 09:25:03;;;;;;;21.60;10.25;;;40.60;52.90;;;;;;6151173;23;19921;-74
2022/08/28 09:27:33;;;;;;;14.55;10.82;;;40.40;53.80;;;;;;6150029;23;20072;-75
2022/08/28 09:30:05;;;;;;;15.43;11.20;;;40.80;53.60;;;;;;6150562;23;20021;-75
2022/08/28 09:32:37;;;;;;;14.75;10.82;;;40.60;53.90;;;;;;6150280;23;20404;-73
2022/08/28 09:35:13;;;;;;;13.63;11.00;;;40.40;54.60;;;;;;6149759;23;20029;-73
2022/08/28 09:37:42;;;;;;;17.55;11.25;;;41.00;53.40;;;;;;6150002;23;20092;-74
2022/08/28 09:40:20;;;;;;;12.68;10.75;;;40.90;52.80;;;;;;6153040;23;20044;-74
2022/08/28 09:45:58;;;;;;;24.13;11.65;;;39.30;54.20;;;;;;6152734;23;20025;-73
2022/08/28 09:48:34;;;;;;;15.60;11.95;;;38.10;55.70;;;;;;6153042;23;20021;-73
2022/08/28 09:51:04;;;;;;;18.40;11.48;;;37.40;56.90;;;;;;6151088;23;20032;-72
2022/08/28 09:53:35;;;;;;;12.02;10.85;;;36.80;57.30;;;;;;6151149;23;20021;-74
2022/08/28 09:56:18;;;;;;;23.85;12.30;;;36.50;58.30;;;;;;6153046;23;20091;-74
2022/08/28 09:58:50;;;;;;;19.92;11.23;;;36.50;58.70;;;;;;6151362;23;20125;-73
2022/08/28 10:01:43;;;;;;;15.63;12.30;;;36.10;59.20;;;;;;6151774;23;20455;-74
2022/08/28 10:04:54;;;;;;;16.02;11.40;;;36.00;59.10;;;;;;6152441;23;20026;-73
2022/08/28 10:07:32;;;;;;;16.33;11.25;;;36.20;58.50;;;;;;6139349;23;20385;-73
2022/08/28 10:10:20;;;;;;;15.20;11.05;;;36.10;58.70;;;;;;6150608;23;20500;-74
2022/08/28 10:13:01;;;;;;;13.95;11.32;;;36.10;58.60;;;;;;6151928;23;20032;-76
2022/08/28 10:15:37;;;;;;;23.50;11.45;;;36.00;58.80;;;;;;6152763;23;20026;-76
2022/08/28 10:18:27;;;;;;;17.50;11.40;;;35.70;59.50;;;;;;6152408;23;20021;-78
2022/08/28 10:21:05;;;;;;;18.38;11.55;;;35.00;60.50;;;;;;6150257;23;20394;-75
2022/08/28 10:23:49;;;;;;;21.23;12.23;;;34.60;62.10;;;;;;6152184;23;20030;-75
2022/08/28 10:26:34;;;;;;;11.98;10.38;;;34.70;60.80;;;;;;6152529;23;20036;-75
2022/08/28 10:29:29;;;;;;;11.50;10.05;;;34.70;59.20;;;;;;6153027;23;20120;-76
2022/08/28 10:32:13;;;;;;;14.35;10.52;;;34.60;59.20;;;;;;6150884;23;20037;-76
2022/08/28 10:35:00;;;;;;;11.15;8.70;;;34.60;59.70;;;;;;6152945;23;20057;-77
2022/08/28 10:37:43;;;;;;;12.93;9.48;;;34.80;58.90;;;;;;6152364;23;20022;-75
2022/08/28 10:40:17;;;;;;;10.57;9.68;;;35.00;57.40;;;;;;6151906;23;20025;-75
2022/08/28 10:42:51;;;;;;;16.08;10.18;;;34.80;57.60;;;;;;6149980;23;20136;-76
2022/08/28 10:45:23;;;;;;;15.98;9.27;;;34.60;58.10;;;;;;6152170;23;20080;-76
2022/08/28 10:47:55;;;;;;;12.68;8.02;;;34.70;57.80;;;;;;6152128;23;20393;-76
2022/08/28 10:50:25;;;;;;;;;;;35.30;56.20;;;;;;6151453;23;20419;-76
2022/08/28 10:53:00;;;;;;;10.15;9.20;;;35.70;55.90;;;;;;6151573;23;19956;-76
2022/08/28 10:55:36;;;;;;;13.55;8.95;;;36.00;55.10;;;;;;6152809;23;20117;-76
2022/08/28 10:58:08;;;;;;;17.02;9.68;;;35.90;54.00;;;;;;6152329;23;20031;-76
2022/08/28 11:00:37;;;;;;;13.02;8.25;;;35.70;54.10;;;;;;6152653;23;20029;-76
2022/08/28 11:03:11;;;;;;;14.27;8.05;;;35.00;54.80;;;;;;6149931;23;20045;-78
2022/08/28 11:05:48;;;;;;;13.90;8.02;;;34.50;55.30;;;;;;6151694;23;20613;-79
2022/08/28 11:08:27;;;;;;;7.97;7.18;;;34.10;55.80;;;;;;6153361;23;20553;-78
2022/08/28 11:10:57;;;;;;;16.58;8.23;;;33.90;55.90;;;;;;6151911;23;20435;-78
2022/08/28 11:13:47;;;;;;;8.95;8.07;;;33.80;56.10;;;;;;6152886;23;20394;-78
2022/08/28 11:16:21;;;;;;;11.70;7.93;;;33.80;56.20;;;;;;6152485;23;20104;-78
2022/08/28 11:19:16;;;;;;;8.93;7.55;;;33.80;56.30;;;;;;6151379;23;20021;-78
2022/08/28 11:21:48;;;;;;;13.43;8.57;;;33.90;56.30;;;;;;6174740;23;20045;-77
2022/08/28 11:24:43;;;;;;;11.85;7.72;;;33.80;56.40;;;;;;6152034;23;20092;-77
2022/08/28 11:27:26;;;;;;;9.57;8.18;;;33.60;56.80;;;;;;6149729;23;20021;-78
2022/08/28 11:30:31;;;;;;;13.10;8.13;;;33.20;57.70;;;;;;6152762;23;20030;-78
2022/08/28 11:33:10;;;;;;;15.90;8.23;;;32.80;58.60;;;;;;6151223;23;20096;-77
2022/08/28 11:35:51;;;;;;;13.32;8.20;;;32.70;58.90;;;;;;6149098;23;20337;-76
2022/08/28 11:39:13;;;;;;;10.23;7.72;;;32.90;59.20;;;;;;6150181;23;20021;-77
2022/08/28 11:42:35;;;;;;;12.67;8.23;;;33.60;58.20;;;;;;6150380;23;20021;-78
2022/08/28 11:45:04;;;;;;;12.85;7.50;;;35.00;56.30;;;;;;6153197;23;20025;-77
2022/08/28 11:47:46;;;;;;;9.73;8.10;;;36.30;54.10;;;;;;6150936;23;20021;-78
2022/08/28 11:50:25;;;;;;;11.00;8.20;;;36.40;54.10;;;;;;6126731;23;20029;-78
2022/08/28 11:53:47;;;;;;;11.18;7.90;;;36.30;53.80;;;;;;6175570;23;20447;-74
2022/08/28 11:56:46;;;;;;;11.75;7.72;;;35.90;54.10;;;;;;6133388;23;20021;-77
2022/08/28 11:59:52;;;;;;;11.48;7.57;;;35.40;55.20;;;;;;6152470;23;20021;-75
2022/08/28 12:02:49;;;;;;;12.77;8.05;;;36.10;54.90;;;;;;6147342;23;20025;-74
2022/08/28 12:05:41;;;;;;;9.10;8.18;;;37.70;52.20;;;;;;6152452;23;20363;-74
2022/08/28 12:08:11;;;;;;;12.40;8.25;;;38.80;51.10;;;;;;6150471;23;20022;-74
2022/08/28 12:10:57;;;;;;;13.82;8.85;;;39.90;49.70;;;;;;6152501;23;20032;-74
2022/08/28 12:13:50;;;;;;;9.95;8.07;;;40.60;48.70;;;;;;6150810;23;20021;-78
2022/08/28 12:16:18;;;;;;;10.43;9.02;;;41.50;48.00;;;;;;6151014;23;20029;-74
2022/08/28 12:19:03;;;;;;;10.52;8.60;;;42.20;46.70;;;;;;6152166;23;20108;-74
2022/08/28 12:21:39;;;;;;;13.88;8.98;;;42.10;46.20;;;;;;6151780;23;20035;-73
2022/08/28 12:24:21;;;;;;;11.23;8.35;;;41.80;46.50;;;;;;6152120;23;20064;-74
2022/08/28 12:26:53;;;;;;;;;;;41.90;45.70;;;;;;6152412;23;20037;-72
2022/08/28 12:29:32;;;;;;;12.70;8.60;;;40.70;46.90;;;;;;6151878;23;20302;-74
2022/08/28 12:32:27;;;;;;;10.80;8.50;;;39.50;48.50;;;;;;6151281;23;20414;-73
2022/08/28 12:35:20;;;;;;;11.80;8.05;;;39.60;48.70;;;;;;6152356;23;20025;-74
2022/08/28 12:38:01;;;;;;;12.00;8.55;;;40.40;48.50;;;;;;6145338;23;20076;-74
2022/08/28 12:40:34;;;;;;;14.32;8.70;;;41.30;47.20;;;;;;6151894;23;20037;-74
2022/08/28 12:43:05;;;;;;;15.02;8.27;;;41.80;45.90;;;;;;6151390;23;20029;-74
2022/08/28 12:45:39;;;;;;;14.32;8.30;;;41.30;45.90;;;;;;6152825;23;20022;-73
2022/08/28 12:48:17;;;;;;;11.77;8.23;;;41.10;45.70;;;;;;6151413;23;20026;-74
2022/08/28 12:50:45;;;;;;;13.35;9.13;;;41.20;45.80;;;;;;6152166;23;20362;-75
2022/08/28 12:53:17;;;;;;;14.27;7.68;;;41.60;45.50;;;;;;6150427;23;20029;-75
2022/08/28 12:55:46;;;;;;;13.48;8.10;;;41.80;45.20;;;;;;6152006;23;20470;-73
2022/08/28 12:58:26;;;;;;;9.15;8.05;;;42.30;44.70;;;;;;6152037;23;20052;-74
2022/08/28 13:00:59;;;;;;;12.60;7.90;;;42.50;44.60;;;;;;6151329;23;20029;-74
2022/08/28 13:03:27;;;;;;;19.75;8.65;;;42.80;44.40;;;;;;6151496;23;20409;-73
2022/08/28 13:06:04;;;;;;;16.92;8.82;;;42.80;44.30;;;;;;6152188;23;20032;-74
2022/08/28 13:08:33;;;;;;;11.55;8.43;;;43.00;44.40;;;;;;6125531;23;20022;-75